sensor_id;sensor_type;location;lat;lon;timestamp;P1;durP1;ratioP1;P2;durP2;ratioP2
16965;SDS011;8599;47.852;12.070;2024-03-08T00:02:07;24.37;;;11.67;;
16965;SDS011;8599;47.852;12.070;2024-03-08T00:04:34;20.33;;;11.07;;
16965;SDS011;8599;47.852;12.070;2024-03-08T00:07:00;22.00;;;11.17;;
16965;SDS011;8599;47.852;12.070;2024-03-08T00:09:27;20.83;;;10.70;;
16965;SDS011;8599;47.852;12.070;2024-03-08T00:11:55;24.97;;;11.53;;
16965;SDS011;8599;47.852;12.070;2024-03-08T00:14:24;22.73;;;11.43;;
16965;SDS011;8599;47.852;12.070;2024-03-08T00:16:51;19.77;;;10.77;;
16965;SDS011;8599;47.852;12.070;2024-03-08T00:19:19;22.10;;;11.97;;
16965;SDS011;8599;47.852;12.070;2024-03-08T00:21:46;22.80;;;10.70;;
16965;SDS011;8599;47.852;12.070;2024-03-08T00:24:12;21.57;;;10.57;;
16965;SDS011;8599;47.852;12.070;2024-03-08T00:26:39;18.30;;;10.33;;
16965;SDS011;8599;47.852;12.070;2024-03-08T00:29:07;22.97;;;11.53;;
16965;SDS011;8599;47.852;12.070;2024-03-08T00:31:35;22.10;;;11.07;;
16965;SDS011;8599;47.852;12.070;2024-03-08T00:34:02;19.50;;;10.40;;
16965;SDS011;8599;47.852;12.070;2024-03-08T00:36:28;20.03;;;9.97;;
16965;SDS011;8599;47.852;12.070;2024-03-08T00:38:56;25.53;;;11.33;;
16965;SDS011;8599;47.852;12.070;2024-03-08T00:41:25;18.77;;;10.40;;
16965;SDS011;8599;47.852;12.070;2024-03-08T00:43:52;21.00;;;10.27;;
16965;SDS011;8599;47.852;12.070;2024-03-08T00:46:19;20.73;;;10.63;;
16965;SDS011;8599;47.852;12.070;2024-03-08T00:48:47;22.97;;;10.23;;
16965;SDS011;8599;47.852;12.070;2024-03-08T00:51:14;23.70;;;11.30;;
16965;SDS011;8599;47.852;12.070;2024-03-08T00:53:41;25.70;;;10.80;;
16965;SDS011;8599;47.852;12.070;2024-03-08T00:56:08;22.33;;;11.53;;
16965;SDS011;8599;47.852;12.070;2024-03-08T00:58:35;23.20;;;12.10;;
16965;SDS011;8599;47.852;12.070;2024-03-08T01:01:02;29.53;;;12.37;;
16965;SDS011;8599;47.852;12.070;2024-03-08T01:03:30;20.43;;;10.90;;
16965;SDS011;8599;47.852;12.070;2024-03-08T01:05:59;22.47;;;11.03;;
16965;SDS011;8599;47.852;12.070;2024-03-08T01:08:27;20.77;;;10.57;;
16965;SDS011;8599;47.852;12.070;2024-03-08T01:10:53;22.27;;;11.70;;
16965;SDS011;8599;47.852;12.070;2024-03-08T01:13:20;23.30;;;10.83;;
16965;SDS011;8599;47.852;12.070;2024-03-08T01:15:47;22.70;;;12.03;;
16965;SDS011;8599;47.852;12.070;2024-03-08T01:18:14;22.93;;;11.47;;
16965;SDS011;8599;47.852;12.070;2024-03-08T01:20:41;26.97;;;11.53;;
16965;SDS011;8599;47.852;12.070;2024-03-08T01:23:09;27.13;;;11.37;;
16965;SDS011;8599;47.852;12.070;2024-03-08T01:25:36;26.03;;;12.33;;
16965;SDS011;8599;47.852;12.070;2024-03-08T01:28:03;26.60;;;12.00;;
16965;SDS011;8599;47.852;12.070;2024-03-08T01:30:30;20.27;;;11.80;;
16965;SDS011;8599;47.852;12.070;2024-03-08T01:32:57;20.37;;;10.60;;
16965;SDS011;8599;47.852;12.070;2024-03-08T01:35:24;22.67;;;10.40;;
16965;SDS011;8599;47.852;12.070;2024-03-08T01:37:52;18.77;;;10.10;;
16965;SDS011;8599;47.852;12.070;2024-03-08T01:40:20;20.23;;;9.73;;
16965;SDS011;8599;47.852;12.070;2024-03-08T01:42:47;24.80;;;11.30;;
16965;SDS011;8599;47.852;12.070;2024-03-08T01:45:14;20.87;;;10.03;;
16965;SDS011;8599;47.852;12.070;2024-03-08T01:47:41;25.07;;;11.37;;
16965;SDS011;8599;47.852;12.070;2024-03-08T01:50:08;24.93;;;10.50;;
16965;SDS011;8599;47.852;12.070;2024-03-08T01:52:35;25.23;;;10.53;;
16965;SDS011;8599;47.852;12.070;2024-03-08T01:55:03;18.60;;;9.73;;
16965;SDS011;8599;47.852;12.070;2024-03-08T01:57:34;21.27;;;9.80;;
16965;SDS011;8599;47.852;12.070;2024-03-08T02:00:03;20.50;;;10.20;;
16965;SDS011;8599;47.852;12.070;2024-03-08T02:02:31;19.57;;;10.20;;
16965;SDS011;8599;47.852;12.070;2024-03-08T02:05:00;19.30;;;9.57;;
16965;SDS011;8599;47.852;12.070;2024-03-08T02:07:28;17.90;;;9.03;;
16965;SDS011;8599;47.852;12.070;2024-03-08T02:09:55;18.57;;;9.57;;
16965;SDS011;8599;47.852;12.070;2024-03-08T02:12:21;20.40;;;9.03;;
16965;SDS011;8599;47.852;12.070;2024-03-08T02:14:50;17.80;;;9.17;;
16965;SDS011;8599;47.852;12.070;2024-03-08T02:17:16;18.80;;;9.23;;
16965;SDS011;8599;47.852;12.070;2024-03-08T02:19:43;21.20;;;9.47;;
16965;SDS011;8599;47.852;12.070;2024-03-08T02:22:11;19.67;;;9.13;;
16965;SDS011;8599;47.852;12.070;2024-03-08T02:24:38;19.23;;;9.27;;
16965;SDS011;8599;47.852;12.070;2024-03-08T02:27:05;17.80;;;9.57;;
16965;SDS011;8599;47.852;12.070;2024-03-08T02:29:32;19.67;;;9.70;;
16965;SDS011;8599;47.852;12.070;2024-03-08T02:32:00;15.83;;;9.13;;
16965;SDS011;8599;47.852;12.070;2024-03-08T02:34:28;22.87;;;11.07;;
16965;SDS011;8599;47.852;12.070;2024-03-08T02:36:56;27.27;;;11.13;;
16965;SDS011;8599;47.852;12.070;2024-03-08T02:39:24;22.43;;;10.87;;
16965;SDS011;8599;47.852;12.070;2024-03-08T02:41:52;23.53;;;11.33;;
16965;SDS011;8599;47.852;12.070;2024-03-08T02:44:19;24.57;;;11.67;;
16965;SDS011;8599;47.852;12.070;2024-03-08T02:46:46;24.50;;;12.03;;
16965;SDS011;8599;47.852;12.070;2024-03-08T02:49:13;23.27;;;11.50;;
16965;SDS011;8599;47.852;12.070;2024-03-08T02:51:41;21.50;;;10.37;;
16965;SDS011;8599;47.852;12.070;2024-03-08T02:54:08;25.23;;;11.77;;
16965;SDS011;8599;47.852;12.070;2024-03-08T02:56:36;22.77;;;11.23;;
16965;SDS011;8599;47.852;12.070;2024-03-08T02:59:03;23.90;;;11.17;;
16965;SDS011;8599;47.852;12.070;2024-03-08T03:01:30;26.53;;;11.93;;
16965;SDS011;8599;47.852;12.070;2024-03-08T03:03:57;23.53;;;11.63;;
16965;SDS011;8599;47.852;12.070;2024-03-08T03:06:24;25.77;;;10.23;;
16965;SDS011;8599;47.852;12.070;2024-03-08T03:08:51;21.50;;;11.27;;
16965;SDS011;8599;47.852;12.070;2024-03-08T03:11:18;20.37;;;10.33;;
16965;SDS011;8599;47.852;12.070;2024-03-08T03:13:46;20.90;;;10.73;;
16965;SDS011;8599;47.852;12.070;2024-03-08T03:16:16;24.03;;;10.60;;
16965;SDS011;8599;47.852;12.070;2024-03-08T03:18:44;22.47;;;10.83;;
16965;SDS011;8599;47.852;12.070;2024-03-08T03:21:11;22.83;;;11.13;;
16965;SDS011;8599;47.852;12.070;2024-03-08T03:23:38;21.80;;;10.30;;
16965;SDS011;8599;47.852;12.070;2024-03-08T03:26:06;23.73;;;10.17;;
16965;SDS011;8599;47.852;12.070;2024-03-08T03:28:33;20.10;;;10.23;;
16965;SDS011;8599;47.852;12.070;2024-03-08T03:31:05;19.27;;;9.60;;
16965;SDS011;8599;47.852;12.070;2024-03-08T03:33:32;19.60;;;9.87;;
16965;SDS011;8599;47.852;12.070;2024-03-08T03:36:01;21.87;;;10.60;;
16965;SDS011;8599;47.852;12.070;2024-03-08T03:38:30;19.30;;;10.10;;
16965;SDS011;8599;47.852;12.070;2024-03-08T03:40:56;21.83;;;9.53;;
16965;SDS011;8599;47.852;12.070;2024-03-08T03:43:29;26.53;;;11.63;;
16965;SDS011;8599;47.852;12.070;2024-03-08T03:45:56;23.70;;;10.37;;
16965;SDS011;8599;47.852;12.070;2024-03-08T03:48:24;26.47;;;10.87;;
16965;SDS011;8599;47.852;12.070;2024-03-08T03:50:51;24.90;;;10.63;;
16965;SDS011;8599;47.852;12.070;2024-03-08T03:53:18;21.50;;;10.17;;
16965;SDS011;8599;47.852;12.070;2024-03-08T03:55:44;18.40;;;9.60;;
16965;SDS011;8599;47.852;12.070;2024-03-08T03:58:11;23.57;;;9.83;;
16965;SDS011;8599;47.852;12.070;2024-03-08T04:00:39;24.53;;;11.10;;
16965;SDS011;8599;47.852;12.070;2024-03-08T04:03:06;18.47;;;9.70;;
16965;SDS011;8599;47.852;12.070;2024-03-08T04:05:34;23.93;;;9.97;;
16965;SDS011;8599;47.852;12.070;2024-03-08T04:08:01;23.03;;;9.80;;
16965;SDS011;8599;47.852;12.070;2024-03-08T04:10:28;31.50;;;11.93;;
16965;SDS011;8599;47.852;12.070;2024-03-08T04:12:55;23.80;;;10.57;;
16965;SDS011;8599;47.852;12.070;2024-03-08T04:15:22;20.67;;;9.10;;
16965;SDS011;8599;47.852;12.070;2024-03-08T04:17:50;26.83;;;10.70;;
16965;SDS011;8599;47.852;12.070;2024-03-08T04:20:17;17.20;;;9.00;;
16965;SDS011;8599;47.852;12.070;2024-03-08T04:22:45;18.60;;;9.33;;
16965;SDS011;8599;47.852;12.070;2024-03-08T04:25:14;25.00;;;10.27;;
16965;SDS011;8599;47.852;12.070;2024-03-08T04:27:41;17.60;;;9.13;;
16965;SDS011;8599;47.852;12.070;2024-03-08T04:30:08;25.87;;;10.90;;
16965;SDS011;8599;47.852;12.070;2024-03-08T04:32:35;20.40;;;10.07;;
16965;SDS011;8599;47.852;12.070;2024-03-08T04:35:03;20.47;;;10.00;;
16965;SDS011;8599;47.852;12.070;2024-03-08T04:37:30;19.63;;;9.77;;
16965;SDS011;8599;47.852;12.070;2024-03-08T04:39:58;21.43;;;9.83;;
16965;SDS011;8599;47.852;12.070;2024-03-08T04:42:25;20.90;;;10.13;;
16965;SDS011;8599;47.852;12.070;2024-03-08T04:44:53;20.13;;;9.57;;
16965;SDS011;8599;47.852;12.070;2024-03-08T04:47:20;19.23;;;9.63;;
16965;SDS011;8599;47.852;12.070;2024-03-08T04:49:47;25.73;;;10.70;;
16965;SDS011;8599;47.852;12.070;2024-03-08T04:52:15;24.70;;;9.97;;
16965;SDS011;8599;47.852;12.070;2024-03-08T04:54:42;21.57;;;9.00;;
16965;SDS011;8599;47.852;12.070;2024-03-08T04:57:11;23.37;;;9.67;;
16965;SDS011;8599;47.852;12.070;2024-03-08T04:59:38;21.77;;;10.13;;
16965;SDS011;8599;47.852;12.070;2024-03-08T05:02:04;21.17;;;9.67;;
16965;SDS011;8599;47.852;12.070;2024-03-08T05:04:32;29.57;;;10.20;;
16965;SDS011;8599;47.852;12.070;2024-03-08T05:06:59;19.33;;;9.17;;
16965;SDS011;8599;47.852;12.070;2024-03-08T05:09:26;24.77;;;10.03;;
16965;SDS011;8599;47.852;12.070;2024-03-08T05:11:54;31.30;;;9.93;;
16965;SDS011;8599;47.852;12.070;2024-03-08T05:14:23;21.70;;;9.17;;
16965;SDS011;8599;47.852;12.070;2024-03-08T05:16:50;23.20;;;10.43;;
16965;SDS011;8599;47.852;12.070;2024-03-08T05:19:17;21.87;;;10.33;;
16965;SDS011;8599;47.852;12.070;2024-03-08T05:21:44;27.93;;;12.83;;
16965;SDS011;8599;47.852;12.070;2024-03-08T05:24:11;24.20;;;10.90;;
16965;SDS011;8599;47.852;12.070;2024-03-08T05:26:39;23.67;;;10.33;;
16965;SDS011;8599;47.852;12.070;2024-03-08T05:29:06;25.17;;;10.57;;
16965;SDS011;8599;47.852;12.070;2024-03-08T05:31:36;24.20;;;10.90;;
16965;SDS011;8599;47.852;12.070;2024-03-08T05:34:11;22.23;;;10.17;;
16965;SDS011;8599;47.852;12.070;2024-03-08T05:36:39;24.10;;;10.43;;
16965;SDS011;8599;47.852;12.070;2024-03-08T05:39:06;20.83;;;10.03;;
16965;SDS011;8599;47.852;12.070;2024-03-08T05:41:33;24.07;;;10.57;;
16965;SDS011;8599;47.852;12.070;2024-03-08T05:44:00;25.30;;;11.47;;
16965;SDS011;8599;47.852;12.070;2024-03-08T05:46:27;20.47;;;10.03;;
16965;SDS011;8599;47.852;12.070;2024-03-08T05:48:56;21.70;;;10.73;;
16965;SDS011;8599;47.852;12.070;2024-03-08T05:51:24;18.53;;;10.53;;
16965;SDS011;8599;47.852;12.070;2024-03-08T05:53:52;28.87;;;11.63;;
16965;SDS011;8599;47.852;12.070;2024-03-08T05:56:20;23.80;;;11.47;;
16965;SDS011;8599;47.852;12.070;2024-03-08T05:58:48;24.60;;;10.90;;
16965;SDS011;8599;47.852;12.070;2024-03-08T06:01:15;27.70;;;11.57;;
16965;SDS011;8599;47.852;12.070;2024-03-08T06:03:42;25.73;;;11.67;;
16965;SDS011;8599;47.852;12.070;2024-03-08T06:06:11;31.70;;;13.93;;
16965;SDS011;8599;47.852;12.070;2024-03-08T06:08:38;28.00;;;12.07;;
16965;SDS011;8599;47.852;12.070;2024-03-08T06:11:05;26.10;;;11.70;;
16965;SDS011;8599;47.852;12.070;2024-03-08T06:13:32;27.63;;;13.23;;
16965;SDS011;8599;47.852;12.070;2024-03-08T06:15:59;23.17;;;10.97;;
16965;SDS011;8599;47.852;12.070;2024-03-08T06:18:29;30.97;;;13.97;;
16965;SDS011;8599;47.852;12.070;2024-03-08T06:20:56;21.17;;;11.17;;
16965;SDS011;8599;47.852;12.070;2024-03-08T06:23:24;28.43;;;12.27;;
16965;SDS011;8599;47.852;12.070;2024-03-08T06:25:52;23.60;;;11.93;;
16965;SDS011;8599;47.852;12.070;2024-03-08T06:28:19;23.70;;;11.37;;
16965;SDS011;8599;47.852;12.070;2024-03-08T06:30:46;24.03;;;11.77;;
16965;SDS011;8599;47.852;12.070;2024-03-08T06:33:13;24.13;;;11.50;;
16965;SDS011;8599;47.852;12.070;2024-03-08T06:35:41;31.87;;;12.43;;
16965;SDS011;8599;47.852;12.070;2024-03-08T06:38:08;27.37;;;11.93;;
16965;SDS011;8599;47.852;12.070;2024-03-08T06:40:36;24.90;;;11.43;;
16965;SDS011;8599;47.852;12.070;2024-03-08T06:43:03;26.80;;;13.07;;
16965;SDS011;8599;47.852;12.070;2024-03-08T06:45:30;24.83;;;11.23;;
16965;SDS011;8599;47.852;12.070;2024-03-08T06:47:57;27.23;;;11.67;;
16965;SDS011;8599;47.852;12.070;2024-03-08T06:50:25;34.97;;;12.37;;
16965;SDS011;8599;47.852;12.070;2024-03-08T06:52:52;27.57;;;11.77;;
16965;SDS011;8599;47.852;12.070;2024-03-08T06:55:19;27.40;;;12.47;;
16965;SDS011;8599;47.852;12.070;2024-03-08T06:57:47;21.57;;;11.17;;
16965;SDS011;8599;47.852;12.070;2024-03-08T07:00:14;25.37;;;11.17;;
16965;SDS011;8599;47.852;12.070;2024-03-08T07:02:45;25.90;;;11.33;;
16965;SDS011;8599;47.852;12.070;2024-03-08T07:05:13;29.17;;;12.80;;
16965;SDS011;8599;47.852;12.070;2024-03-08T07:07:41;23.77;;;12.80;;
16965;SDS011;8599;47.852;12.070;2024-03-08T07:10:08;22.77;;;11.40;;
16965;SDS011;8599;47.852;12.070;2024-03-08T07:12:37;30.47;;;12.40;;
16965;SDS011;8599;47.852;12.070;2024-03-08T07:15:05;24.53;;;12.10;;
16965;SDS011;8599;47.852;12.070;2024-03-08T07:17:33;25.63;;;11.80;;
16965;SDS011;8599;47.852;12.070;2024-03-08T07:20:00;27.47;;;12.13;;
16965;SDS011;8599;47.852;12.070;2024-03-08T07:22:32;28.50;;;13.20;;
16965;SDS011;8599;47.852;12.070;2024-03-08T07:25:02;22.73;;;10.93;;
16965;SDS011;8599;47.852;12.070;2024-03-08T07:27:44;31.77;;;12.00;;
16965;SDS011;8599;47.852;12.070;2024-03-08T07:30:14;24.33;;;11.80;;
16965;SDS011;8599;47.852;12.070;2024-03-08T07:33:02;24.80;;;11.17;;
16965;SDS011;8599;47.852;12.070;2024-03-08T07:35:29;27.40;;;13.27;;
16965;SDS011;8599;47.852;12.070;2024-03-08T07:37:57;27.83;;;12.30;;
16965;SDS011;8599;47.852;12.070;2024-03-08T07:40:25;28.43;;;12.17;;
16965;SDS011;8599;47.852;12.070;2024-03-08T07:42:52;22.23;;;10.60;;
16965;SDS011;8599;47.852;12.070;2024-03-08T07:45:20;27.93;;;10.90;;
16965;SDS011;8599;47.852;12.070;2024-03-08T07:47:48;25.10;;;11.07;;
16965;SDS011;8599;47.852;12.070;2024-03-08T07:50:15;24.57;;;11.43;;
16965;SDS011;8599;47.852;12.070;2024-03-08T07:52:44;21.77;;;11.20;;
16965;SDS011;8599;47.852;12.070;2024-03-08T07:55:11;21.27;;;10.10;;
16965;SDS011;8599;47.852;12.070;2024-03-08T07:57:38;25.73;;;10.60;;
16965;SDS011;8599;47.852;12.070;2024-03-08T08:00:05;24.30;;;11.77;;
16965;SDS011;8599;47.852;12.070;2024-03-08T08:02:34;26.43;;;12.77;;
16965;SDS011;8599;47.852;12.070;2024-03-08T08:05:01;25.07;;;11.27;;
16965;SDS011;8599;47.852;12.070;2024-03-08T08:07:29;24.83;;;11.83;;
16965;SDS011;8599;47.852;12.070;2024-03-08T08:09:55;26.57;;;11.97;;
16965;SDS011;8599;47.852;12.070;2024-03-08T08:12:22;22.47;;;11.23;;
16965;SDS011;8599;47.852;12.070;2024-03-08T08:14:49;24.13;;;11.97;;
16965;SDS011;8599;47.852;12.070;2024-03-08T08:17:16;24.93;;;12.57;;
16965;SDS011;8599;47.852;12.070;2024-03-08T08:19:44;22.47;;;11.97;;
16965;SDS011;8599;47.852;12.070;2024-03-08T08:22:11;22.27;;;11.00;;
16965;SDS011;8599;47.852;12.070;2024-03-08T08:24:38;24.87;;;11.30;;
16965;SDS011;8599;47.852;12.070;2024-03-08T08:27:05;23.40;;;11.43;;
16965;SDS011;8599;47.852;12.070;2024-03-08T08:29:32;21.97;;;10.23;;
16965;SDS011;8599;47.852;12.070;2024-03-08T08:32:00;24.43;;;11.67;;
16965;SDS011;8599;47.852;12.070;2024-03-08T08:34:27;23.30;;;11.73;;
16965;SDS011;8599;47.852;12.070;2024-03-08T08:36:56;24.13;;;11.47;;
16965;SDS011;8599;47.852;12.070;2024-03-08T08:39:23;26.70;;;12.37;;
16965;SDS011;8599;47.852;12.070;2024-03-08T08:41:50;25.33;;;11.67;;
16965;SDS011;8599;47.852;12.070;2024-03-08T08:44:17;23.80;;;11.60;;
16965;SDS011;8599;47.852;12.070;2024-03-08T08:46:44;25.27;;;12.03;;
16965;SDS011;8599;47.852;12.070;2024-03-08T08:49:11;26.30;;;12.37;;
16965;SDS011;8599;47.852;12.070;2024-03-08T08:51:39;28.93;;;12.83;;
16965;SDS011;8599;47.852;12.070;2024-03-08T08:54:07;26.70;;;11.70;;
16965;SDS011;8599;47.852;12.070;2024-03-08T08:56:34;21.00;;;10.83;;
16965;SDS011;8599;47.852;12.070;2024-03-08T08:59:02;19.47;;;9.73;;
16965;SDS011;8599;47.852;12.070;2024-03-08T09:01:29;21.00;;;9.63;;
16965;SDS011;8599;47.852;12.070;2024-03-08T09:03:56;21.23;;;9.87;;
16965;SDS011;8599;47.852;12.070;2024-03-08T09:06:23;17.53;;;9.67;;
16965;SDS011;8599;47.852;12.070;2024-03-08T09:08:50;23.70;;;10.77;;
16965;SDS011;8599;47.852;12.070;2024-03-08T09:11:19;20.37;;;11.00;;
16965;SDS011;8599;47.852;12.070;2024-03-08T09:13:46;23.77;;;11.37;;
16965;SDS011;8599;47.852;12.070;2024-03-08T09:16:14;18.13;;;9.43;;
16965;SDS011;8599;47.852;12.070;2024-03-08T09:18:41;18.23;;;10.20;;
16965;SDS011;8599;47.852;12.070;2024-03-08T09:21:07;22.53;;;9.97;;
16965;SDS011;8599;47.852;12.070;2024-03-08T09:23:35;20.10;;;11.47;;
16965;SDS011;8599;47.852;12.070;2024-03-08T09:26:02;18.00;;;9.20;;
16965;SDS011;8599;47.852;12.070;2024-03-08T09:28:30;19.07;;;9.70;;
16965;SDS011;8599;47.852;12.070;2024-03-08T09:30:57;16.93;;;9.87;;
16965;SDS011;8599;47.852;12.070;2024-03-08T09:33:26;19.07;;;9.40;;
16965;SDS011;8599;47.852;12.070;2024-03-08T09:35:53;23.87;;;8.77;;
16965;SDS011;8599;47.852;12.070;2024-03-08T09:38:22;19.07;;;9.73;;
16965;SDS011;8599;47.852;12.070;2024-03-08T09:40:50;17.33;;;8.57;;
16965;SDS011;8599;47.852;12.070;2024-03-08T09:43:18;17.87;;;9.33;;
16965;SDS011;8599;47.852;12.070;2024-03-08T09:45:46;19.17;;;9.27;;
16965;SDS011;8599;47.852;12.070;2024-03-08T09:48:16;16.33;;;9.63;;
16965;SDS011;8599;47.852;12.070;2024-03-08T09:50:45;19.83;;;10.40;;
16965;SDS011;8599;47.852;12.070;2024-03-08T09:53:13;18.40;;;7.93;;
16965;SDS011;8599;47.852;12.070;2024-03-08T09:55:40;20.30;;;9.43;;
16965;SDS011;8599;47.852;12.070;2024-03-08T09:58:10;17.53;;;9.40;;
16965;SDS011;8599;47.852;12.070;2024-03-08T10:00:57;16.47;;;9.10;;
16965;SDS011;8599;47.852;12.070;2024-03-08T10:03:26;16.93;;;9.33;;
16965;SDS011;8599;47.852;12.070;2024-03-08T10:05:53;16.73;;;9.30;;
16965;SDS011;8599;47.852;12.070;2024-03-08T10:08:25;18.83;;;9.87;;
16965;SDS011;8599;47.852;12.070;2024-03-08T10:10:52;18.17;;;9.33;;
16965;SDS011;8599;47.852;12.070;2024-03-08T10:13:19;16.00;;;9.27;;
16965;SDS011;8599;47.852;12.070;2024-03-08T10:15:45;16.23;;;8.50;;
16965;SDS011;8599;47.852;12.070;2024-03-08T10:18:13;18.30;;;8.30;;
16965;SDS011;8599;47.852;12.070;2024-03-08T10:20:40;16.20;;;8.27;;
16965;SDS011;8599;47.852;12.070;2024-03-08T10:23:08;16.00;;;8.13;;
16965;SDS011;8599;47.852;12.070;2024-03-08T10:25:35;17.87;;;8.23;;
16965;SDS011;8599;47.852;12.070;2024-03-08T10:28:03;16.13;;;8.37;;
16965;SDS011;8599;47.852;12.070;2024-03-08T10:30:33;16.60;;;7.77;;
16965;SDS011;8599;47.852;12.070;2024-03-08T10:33:00;24.03;;;10.03;;
16965;SDS011;8599;47.852;12.070;2024-03-08T10:35:31;15.53;;;8.10;;
16965;SDS011;8599;47.852;12.070;2024-03-08T10:37:58;14.43;;;7.33;;
16965;SDS011;8599;47.852;12.070;2024-03-08T10:40:28;18.00;;;9.53;;
16965;SDS011;8599;47.852;12.070;2024-03-08T10:42:56;14.17;;;8.37;;
16965;SDS011;8599;47.852;12.070;2024-03-08T10:45:30;13.43;;;8.50;;
16965;SDS011;8599;47.852;12.070;2024-03-08T10:48:04;14.80;;;8.10;;
16965;SDS011;8599;47.852;12.070;2024-03-08T10:50:42;14.03;;;8.40;;
16965;SDS011;8599;47.852;12.070;2024-03-08T10:53:10;17.07;;;8.63;;
16965;SDS011;8599;47.852;12.070;2024-03-08T10:55:39;13.80;;;8.60;;
16965;SDS011;8599;47.852;12.070;2024-03-08T10:58:06;15.90;;;8.30;;
16965;SDS011;8599;47.852;12.070;2024-03-08T11:00:33;15.33;;;8.73;;
16965;SDS011;8599;47.852;12.070;2024-03-08T11:03:01;13.83;;;7.07;;
16965;SDS011;8599;47.852;12.070;2024-03-08T11:05:36;15.37;;;8.40;;
16965;SDS011;8599;47.852;12.070;2024-03-08T11:08:08;17.53;;;8.47;;
16965;SDS011;8599;47.852;12.070;2024-03-08T11:10:47;17.27;;;7.57;;
16965;SDS011;8599;47.852;12.070;2024-03-08T11:13:32;15.90;;;8.30;;
16965;SDS011;8599;47.852;12.070;2024-03-08T11:15:59;16.40;;;7.90;;
16965;SDS011;8599;47.852;12.070;2024-03-08T11:18:26;16.63;;;9.20;;
16965;SDS011;8599;47.852;12.070;2024-03-08T11:20:53;18.73;;;7.97;;
16965;SDS011;8599;47.852;12.070;2024-03-08T11:23:23;16.00;;;8.07;;
16965;SDS011;8599;47.852;12.070;2024-03-08T11:25:51;20.53;;;8.93;;
16965;SDS011;8599;47.852;12.070;2024-03-08T11:28:19;17.10;;;9.23;;
16965;SDS011;8599;47.852;12.070;2024-03-08T11:31:21;10.93;;;7.07;;
16965;SDS011;8599;47.852;12.070;2024-03-08T11:33:50;14.73;;;7.87;;
16965;SDS011;8599;47.852;12.070;2024-03-08T11:36:20;22.67;;;8.27;;
16965;SDS011;8599;47.852;12.070;2024-03-08T11:38:49;15.70;;;8.50;;
16965;SDS011;8599;47.852;12.070;2024-03-08T11:41:18;13.70;;;7.90;;
16965;SDS011;8599;47.852;12.070;2024-03-08T11:43:46;14.03;;;8.10;;
16965;SDS011;8599;47.852;12.070;2024-03-08T11:46:13;16.50;;;8.80;;
16965;SDS011;8599;47.852;12.070;2024-03-08T11:48:41;15.23;;;8.50;;
16965;SDS011;8599;47.852;12.070;2024-03-08T11:51:08;14.90;;;9.00;;
16965;SDS011;8599;47.852;12.070;2024-03-08T11:53:37;19.03;;;8.70;;
16965;SDS011;8599;47.852;12.070;2024-03-08T11:56:08;16.23;;;8.77;;
16965;SDS011;8599;47.852;12.070;2024-03-08T11:58:37;15.80;;;9.20;;
16965;SDS011;8599;47.852;12.070;2024-03-08T12:01:05;18.50;;;9.47;;
16965;SDS011;8599;47.852;12.070;2024-03-08T12:03:34;20.27;;;9.50;;
16965;SDS011;8599;47.852;12.070;2024-03-08T12:06:03;17.77;;;9.30;;
16965;SDS011;8599;47.852;12.070;2024-03-08T12:08:30;17.53;;;9.37;;
16965;SDS011;8599;47.852;12.070;2024-03-08T12:10:57;20.00;;;9.57;;
16965;SDS011;8599;47.852;12.070;2024-03-08T12:13:27;18.90;;;9.57;;
16965;SDS011;8599;47.852;12.070;2024-03-08T12:15:55;20.60;;;9.80;;
16965;SDS011;8599;47.852;12.070;2024-03-08T12:18:24;20.00;;;10.23;;
16965;SDS011;8599;47.852;12.070;2024-03-08T12:20:51;23.40;;;9.90;;
16965;SDS011;8599;47.852;12.070;2024-03-08T12:23:29;17.73;;;9.47;;
16965;SDS011;8599;47.852;12.070;2024-03-08T12:25:56;21.53;;;10.50;;
16965;SDS011;8599;47.852;12.070;2024-03-08T12:28:23;22.37;;;10.77;;
16965;SDS011;8599;47.852;12.070;2024-03-08T12:30:51;21.13;;;11.30;;
16965;SDS011;8599;47.852;12.070;2024-03-08T12:33:19;21.20;;;9.83;;
16965;SDS011;8599;47.852;12.070;2024-03-08T12:35:50;23.97;;;10.73;;
16965;SDS011;8599;47.852;12.070;2024-03-08T12:38:20;21.60;;;10.93;;
16965;SDS011;8599;47.852;12.070;2024-03-08T12:40:50;20.87;;;11.27;;
16965;SDS011;8599;47.852;12.070;2024-03-08T12:43:18;22.23;;;11.17;;
16965;SDS011;8599;47.852;12.070;2024-03-08T12:45:45;21.37;;;10.90;;
16965;SDS011;8599;47.852;12.070;2024-03-08T12:48:14;21.30;;;11.10;;
16965;SDS011;8599;47.852;12.070;2024-03-08T12:50:41;20.53;;;11.20;;
16965;SDS011;8599;47.852;12.070;2024-03-08T12:53:09;22.07;;;11.30;;
16965;SDS011;8599;47.852;12.070;2024-03-08T12:55:36;29.30;;;14.93;;
16965;SDS011;8599;47.852;12.070;2024-03-08T12:58:03;22.60;;;13.20;;
16965;SDS011;8599;47.852;12.070;2024-03-08T13:00:32;17.30;;;10.37;;
16965;SDS011;8599;47.852;12.070;2024-03-08T13:03:01;18.30;;;9.80;;
16965;SDS011;8599;47.852;12.070;2024-03-08T13:05:29;18.27;;;10.70;;
16965;SDS011;8599;47.852;12.070;2024-03-08T13:07:56;19.00;;;9.27;;
16965;SDS011;8599;47.852;12.070;2024-03-08T13:10:23;21.00;;;10.40;;
16965;SDS011;8599;47.852;12.070;2024-03-08T13:12:50;21.00;;;9.93;;
16965;SDS011;8599;47.852;12.070;2024-03-08T13:15:18;18.47;;;9.83;;
16965;SDS011;8599;47.852;12.070;2024-03-08T13:17:46;23.30;;;11.50;;
16965;SDS011;8599;47.852;12.070;2024-03-08T13:20:13;18.60;;;10.10;;
16965;SDS011;8599;47.852;12.070;2024-03-08T13:22:45;22.97;;;10.73;;
16965;SDS011;8599;47.852;12.070;2024-03-08T13:25:13;18.80;;;11.17;;
16965;SDS011;8599;47.852;12.070;2024-03-08T13:27:40;18.40;;;10.90;;
16965;SDS011;8599;47.852;12.070;2024-03-08T13:30:07;16.17;;;10.20;;
16965;SDS011;8599;47.852;12.070;2024-03-08T13:32:38;17.87;;;9.63;;
16965;SDS011;8599;47.852;12.070;2024-03-08T13:35:05;18.70;;;10.50;;
16965;SDS011;8599;47.852;12.070;2024-03-08T13:37:37;18.70;;;9.67;;
16965;SDS011;8599;47.852;12.070;2024-03-08T13:40:07;16.27;;;9.40;;
16965;SDS011;8599;47.852;12.070;2024-03-08T13:42:38;20.30;;;11.13;;
16965;SDS011;8599;47.852;12.070;2024-03-08T13:45:06;17.77;;;10.27;;
16965;SDS011;8599;47.852;12.070;2024-03-08T13:47:35;20.63;;;11.13;;
16965;SDS011;8599;47.852;12.070;2024-03-08T13:50:04;16.93;;;9.57;;
16965;SDS011;8599;47.852;12.070;2024-03-08T13:52:32;17.20;;;10.13;;
16965;SDS011;8599;47.852;12.070;2024-03-08T13:54:59;23.03;;;11.67;;
16965;SDS011;8599;47.852;12.070;2024-03-08T13:57:27;19.43;;;10.90;;
16965;SDS011;8599;47.852;12.070;2024-03-08T13:59:54;20.20;;;10.90;;
16965;SDS011;8599;47.852;12.070;2024-03-08T14:02:21;19.90;;;10.10;;
16965;SDS011;8599;47.852;12.070;2024-03-08T14:04:49;18.63;;;10.07;;
16965;SDS011;8599;47.852;12.070;2024-03-08T14:07:16;19.10;;;10.30;;
16965;SDS011;8599;47.852;12.070;2024-03-08T14:09:43;17.07;;;10.13;;
16965;SDS011;8599;47.852;12.070;2024-03-08T14:12:10;22.60;;;9.83;;
16965;SDS011;8599;47.852;12.070;2024-03-08T14:14:38;18.40;;;9.80;;
16965;SDS011;8599;47.852;12.070;2024-03-08T14:17:07;19.53;;;9.93;;
16965;SDS011;8599;47.852;12.070;2024-03-08T14:19:34;22.47;;;10.03;;
16965;SDS011;8599;47.852;12.070;2024-03-08T14:22:01;20.67;;;9.83;;
16965;SDS011;8599;47.852;12.070;2024-03-08T14:24:29;17.37;;;9.13;;
16965;SDS011;8599;47.852;12.070;2024-03-08T14:26:56;13.47;;;8.63;;
16965;SDS011;8599;47.852;12.070;2024-03-08T14:29:23;15.80;;;9.23;;
16965;SDS011;8599;47.852;12.070;2024-03-08T14:31:55;21.80;;;11.07;;